sensor_id;sensor_type;location;lat;lon;timestamp;P1;durP1;ratioP1;P2;durP2;ratioP2
52396;SDS011;38322;53.108;6.308;2022-10-16T05:02:36;2.65;;;1.25;;
52396;SDS011;38322;53.108;6.308;2022-10-16T05:05:02;7.05;;;2.22;;
52396;SDS011;38322;53.108;6.308;2022-10-16T05:07:28;2.95;;;1.50;;
52396;SDS011;38322;53.108;6.308;2022-10-16T05:09:53;9.98;;;1.35;;
52396;SDS011;38322;53.108;6.308;2022-10-16T05:12:19;1.60;;;1.13;;
52396;SDS011;38322;53.108;6.308;2022-10-16T05:14:45;3.92;;;1.00;;
52396;SDS011;38322;53.108;6.308;2022-10-16T05:17:11;2.53;;;1.25;;
52396;SDS011;38322;53.108;6.308;2022-10-16T05:19:37;5.18;;;1.60;;
52396;SDS011;38322;53.108;6.308;2022-10-16T05:22:02;3.08;;;1.52;;
52396;SDS011;38322;53.108;6.308;2022-10-16T05:24:28;5.60;;;1.58;;
52396;SDS011;38322;53.108;6.308;2022-10-16T05:26:54;7.40;;;1.58;;
52396;SDS011;38322;53.108;6.308;2022-10-16T05:29:20;3.55;;;2.35;;
52396;SDS011;38322;53.108;6.308;2022-10-16T05:31:46;3.35;;;1.00;;
52396;SDS011;38322;53.108;6.308;2022-10-16T05:34:14;7.47;;;1.85;;
52396;SDS011;38322;53.108;6.308;2022-10-16T05:36:40;7.03;;;1.67;;
52396;SDS011;38322;53.108;6.308;2022-10-16T05:39:06;3.38;;;1.20;;
52396;SDS011;38322;53.108;6.308;2022-10-16T05:41:31;6.38;;;1.40;;
52396;SDS011;38322;53.108;6.308;2022-10-16T05:43:57;5.07;;;2.33;;
52396;SDS011;38322;53.108;6.308;2022-10-16T05:46:23;3.72;;;1.63;;
52396;SDS011;38322;53.108;6.308;2022-10-16T05:48:51;4.18;;;1.80;;
52396;SDS011;38322;53.108;6.308;2022-10-16T05:51:18;5.00;;;1.15;;
52396;SDS011;38322;53.108;6.308;2022-10-16T05:53:43;3.45;;;1.30;;
52396;SDS011;38322;53.108;6.308;2022-10-16T05:56:10;4.65;;;1.58;;
52396;SDS011;38322;53.108;6.308;2022-10-16T05:58:38;2.97;;;1.30;;
52396;SDS011;38322;53.108;6.308;2022-10-16T06:01:08;4.68;;;1.88;;
52396;SDS011;38322;53.108;6.308;2022-10-16T06:03:38;5.22;;;1.70;;
52396;SDS011;38322;53.108;6.308;2022-10-16T06:06:08;7.63;;;1.50;;
52396;SDS011;38322;53.108;6.308;2022-10-16T06:11:04;3.80;;;1.42;;
52396;SDS011;38322;53.108;6.308;2022-10-16T06:13:31;3.15;;;2.15;;
52396;SDS011;38322;53.108;6.308;2022-10-16T06:15:57;9.15;;;1.63;;
52396;SDS011;38322;53.108;6.308;2022-10-16T06:18:25;7.72;;;1.63;;
52396;SDS011;38322;53.108;6.308;2022-10-16T06:20:51;5.13;;;1.92;;
52396;SDS011;38322;53.108;6.308;2022-10-16T06:23:17;5.55;;;1.77;;
52396;SDS011;38322;53.108;6.308;2022-10-16T06:25:43;4.22;;;1.40;;
52396;SDS011;38322;53.108;6.308;2022-10-16T06:28:09;3.53;;;1.90;;
52396;SDS011;38322;53.108;6.308;2022-10-16T06:30:34;4.22;;;1.48;;
52396;SDS011;38322;53.108;6.308;2022-10-16T06:33:00;3.40;;;1.77;;
52396;SDS011;38322;53.108;6.308;2022-10-16T06:35:26;4.05;;;2.25;;
52396;SDS011;38322;53.108;6.308;2022-10-16T06:37:52;4.22;;;1.33;;
52396;SDS011;38322;53.108;6.308;2022-10-16T06:40:18;5.25;;;1.35;;
52396;SDS011;38322;53.108;6.308;2022-10-16T06:42:44;3.80;;;1.50;;
52396;SDS011;38322;53.108;6.308;2022-10-16T06:45:10;2.50;;;1.35;;
52396;SDS011;38322;53.108;6.308;2022-10-16T06:47:36;5.40;;;1.80;;
52396;SDS011;38322;53.108;6.308;2022-10-16T06:50:02;3.63;;;1.65;;
52396;SDS011;38322;53.108;6.308;2022-10-16T06:52:28;5.13;;;1.85;;
52396;SDS011;38322;53.108;6.308;2022-10-16T06:54:54;6.43;;;1.33;;
52396;SDS011;38322;53.108;6.308;2022-10-16T06:57:20;3.15;;;1.13;;
52396;SDS011;38322;53.108;6.308;2022-10-16T06:59:46;3.08;;;1.23;;
52396;SDS011;38322;53.108;6.308;2022-10-16T07:02:12;2.55;;;1.30;;
52396;SDS011;38322;53.108;6.308;2022-10-16T07:04:37;3.92;;;1.45;;
52396;SDS011;38322;53.108;6.308;2022-10-16T07:07:03;6.55;;;1.70;;
52396;SDS011;38322;53.108;6.308;2022-10-16T07:09:29;6.05;;;1.25;;
52396;SDS011;38322;53.108;6.308;2022-10-16T07:11:55;4.35;;;1.40;;
52396;SDS011;38322;53.108;6.308;2022-10-16T07:14:21;11.48;;;1.77;;
52396;SDS011;38322;53.108;6.308;2022-10-16T07:16:47;3.75;;;1.55;;
52396;SDS011;38322;53.108;6.308;2022-10-16T07:19:13;2.63;;;1.15;;
52396;SDS011;38322;53.108;6.308;2022-10-16T07:21:40;3.25;;;1.70;;
52396;SDS011;38322;53.108;6.308;2022-10-16T07:24:10;3.13;;;1.52;;
52396;SDS011;38322;53.108;6.308;2022-10-16T07:26:38;5.17;;;1.53;;
52396;SDS011;38322;53.108;6.308;2022-10-16T07:29:07;2.78;;;1.20;;
52396;SDS011;38322;53.108;6.308;2022-10-16T07:31:38;3.35;;;1.55;;
52396;SDS011;38322;53.108;6.308;2022-10-16T07:34:05;4.65;;;1.52;;
52396;SDS011;38322;53.108;6.308;2022-10-16T07:36:31;4.22;;;1.35;;
52396;SDS011;38322;53.108;6.308;2022-10-16T07:38:56;7.93;;;1.90;;
52396;SDS011;38322;53.108;6.308;2022-10-16T07:41:22;4.85;;;1.45;;
52396;SDS011;38322;53.108;6.308;2022-10-16T07:43:50;2.78;;;1.38;;
52396;SDS011;38322;53.108;6.308;2022-10-16T07:46:17;5.38;;;2.72;;
52396;SDS011;38322;53.108;6.308;2022-10-16T07:48:44;5.03;;;1.48;;
52396;SDS011;38322;53.108;6.308;2022-10-16T07:51:13;6.55;;;1.50;;
52396;SDS011;38322;53.108;6.308;2022-10-16T07:53:40;3.78;;;1.48;;
52396;SDS011;38322;53.108;6.308;2022-10-16T07:56:06;4.10;;;1.63;;
52396;SDS011;38322;53.108;6.308;2022-10-16T07:58:33;8.80;;;2.67;;
52396;SDS011;38322;53.108;6.308;2022-10-16T08:01:04;7.45;;;1.92;;
52396;SDS011;38322;53.108;6.308;2022-10-16T08:03:31;7.13;;;2.28;;
52396;SDS011;38322;53.108;6.308;2022-10-16T08:05:58;3.10;;;1.35;;
52396;SDS011;38322;53.108;6.308;2022-10-16T08:08:24;3.75;;;1.30;;
52396;SDS011;38322;53.108;6.308;2022-10-16T08:10:50;5.28;;;1.80;;
52396;SDS011;38322;53.108;6.308;2022-10-16T08:13:15;3.92;;;1.65;;
52396;SDS011;38322;53.108;6.308;2022-10-16T08:15:42;7.57;;;1.55;;
52396;SDS011;38322;53.108;6.308;2022-10-16T08:18:08;6.13;;;1.90;;
52396;SDS011;38322;53.108;6.308;2022-10-16T08:20:35;2.70;;;1.02;;
52396;SDS011;38322;53.108;6.308;2022-10-16T08:23:01;2.38;;;0.60;;
52396;SDS011;38322;53.108;6.308;2022-10-16T08:25:27;5.85;;;1.25;;
52396;SDS011;38322;53.108;6.308;2022-10-16T08:27:54;4.22;;;1.98;;
52396;SDS011;38322;53.108;6.308;2022-10-16T08:30:20;3.03;;;1.17;;
52396;SDS011;38322;53.108;6.308;2022-10-16T08:32:47;3.17;;;1.35;;
52396;SDS011;38322;53.108;6.308;2022-10-16T08:35:13;5.60;;;0.80;;
52396;SDS011;38322;53.108;6.308;2022-10-16T08:37:40;5.00;;;1.10;;
52396;SDS011;38322;53.108;6.308;2022-10-16T08:40:07;7.97;;;1.08;;
52396;SDS011;38322;53.108;6.308;2022-10-16T08:42:46;3.28;;;0.70;;
52396;SDS011;38322;53.108;6.308;2022-10-16T08:48:00;4.97;;;0.80;;
52396;SDS011;38322;53.108;6.308;2022-10-16T08:50:36;3.65;;;0.93;;
52396;SDS011;38322;53.108;6.308;2022-10-16T08:53:05;3.60;;;0.63;;
52396;SDS011;38322;53.108;6.308;2022-10-16T08:55:39;5.10;;;0.90;;
52396;SDS011;38322;53.108;6.308;2022-10-16T08:58:16;2.92;;;0.60;;
52396;SDS011;38322;53.108;6.308;2022-10-16T09:00:46;6.22;;;1.67;;
52396;SDS011;38322;53.108;6.308;2022-10-16T09:03:17;5.50;;;1.25;;
52396;SDS011;38322;53.108;6.308;2022-10-16T09:06:04;7.70;;;0.80;;
52396;SDS011;38322;53.108;6.308;2022-10-16T09:08:56;5.28;;;0.93;;
52396;SDS011;38322;53.108;6.308;2022-10-16T09:16:58;5.95;;;1.08;;
52396;SDS011;38322;53.108;6.308;2022-10-16T09:19:31;5.93;;;1.33;;
52396;SDS011;38322;53.108;6.308;2022-10-16T09:22:10;8.85;;;1.33;;
52396;SDS011;38322;53.108;6.308;2022-10-16T09:24:40;4.22;;;0.63;;
52396;SDS011;38322;53.108;6.308;2022-10-16T09:27:08;5.43;;;0.88;;
52396;SDS011;38322;53.108;6.308;2022-10-16T09:29:36;11.25;;;1.67;;
52396;SDS011;38322;53.108;6.308;2022-10-16T09:32:11;5.07;;;1.25;;
52396;SDS011;38322;53.108;6.308;2022-10-16T09:34:45;4.05;;;0.75;;
52396;SDS011;38322;53.108;6.308;2022-10-16T09:37:14;4.93;;;0.73;;
52396;SDS011;38322;53.108;6.308;2022-10-16T09:39:45;7.10;;;2.17;;
52396;SDS011;38322;53.108;6.308;2022-10-16T09:42:14;6.22;;;1.05;;
52396;SDS011;38322;53.108;6.308;2022-10-16T09:44:51;11.07;;;1.38;;
52396;SDS011;38322;53.108;6.308;2022-10-16T09:47:20;7.72;;;1.52;;
52396;SDS011;38322;53.108;6.308;2022-10-16T09:49:50;12.98;;;1.77;;
52396;SDS011;38322;53.108;6.308;2022-10-16T09:52:19;10.85;;;1.40;;
52396;SDS011;38322;53.108;6.308;2022-10-16T09:54:52;10.65;;;1.10;;
52396;SDS011;38322;53.108;6.308;2022-10-16T09:57:20;12.95;;;1.30;;
52396;SDS011;38322;53.108;6.308;2022-10-16T09:59:49;9.15;;;1.95;;
52396;SDS011;38322;53.108;6.308;2022-10-16T10:02:17;9.60;;;1.90;;
52396;SDS011;38322;53.108;6.308;2022-10-16T10:04:49;7.63;;;1.20;;
52396;SDS011;38322;53.108;6.308;2022-10-16T10:07:25;10.77;;;1.00;;
52396;SDS011;38322;53.108;6.308;2022-10-16T10:09:53;6.53;;;1.48;;
52396;SDS011;38322;53.108;6.308;2022-10-16T10:12:23;12.10;;;1.92;;
52396;SDS011;38322;53.108;6.308;2022-10-16T10:14:51;12.10;;;3.33;;
52396;SDS011;38322;53.108;6.308;2022-10-16T10:17:21;9.82;;;2.13;;
52396;SDS011;38322;53.108;6.308;2022-10-16T10:19:52;6.10;;;2.03;;
52396;SDS011;38322;53.108;6.308;2022-10-16T10:22:27;10.20;;;1.42;;
52396;SDS011;38322;53.108;6.308;2022-10-16T10:27:32;9.52;;;1.33;;
52396;SDS011;38322;53.108;6.308;2022-10-16T10:30:25;5.97;;;1.45;;
52396;SDS011;38322;53.108;6.308;2022-10-16T10:35:56;11.45;;;2.05;;
52396;SDS011;38322;53.108;6.308;2022-10-16T10:38:51;10.20;;;1.42;;
52396;SDS011;38322;53.108;6.308;2022-10-16T10:46:53;9.70;;;1.92;;
52396;SDS011;38322;53.108;6.308;2022-10-16T10:49:37;10.68;;;2.97;;
52396;SDS011;38322;53.108;6.308;2022-10-16T11:03:19;11.70;;;2.40;;
52396;SDS011;38322;53.108;6.308;2022-10-16T11:06:07;9.25;;;1.40;;
52396;SDS011;38322;53.108;6.308;2022-10-16T11:11:25;13.45;;;3.10;;
52396;SDS011;38322;53.108;6.308;2022-10-16T11:14:00;9.38;;;0.95;;
52396;SDS011;38322;53.108;6.308;2022-10-16T11:16:48;11.13;;;1.50;;
52396;SDS011;38322;53.108;6.308;2022-10-16T11:19:34;8.05;;;2.90;;
52396;SDS011;38322;53.108;6.308;2022-10-16T11:22:11;11.27;;;2.47;;
52396;SDS011;38322;53.108;6.308;2022-10-16T11:24:42;8.00;;;1.88;;
52396;SDS011;38322;53.108;6.308;2022-10-16T11:27:18;12.35;;;2.13;;
52396;SDS011;38322;53.108;6.308;2022-10-16T11:29:52;14.55;;;1.70;;
52396;SDS011;38322;53.108;6.308;2022-10-16T11:32:28;14.23;;;1.77;;
52396;SDS011;38322;53.108;6.308;2022-10-16T11:35:02;12.68;;;1.17;;
52396;SDS011;38322;53.108;6.308;2022-10-16T11:37:38;10.88;;;2.45;;
52396;SDS011;38322;53.108;6.308;2022-10-16T11:40:23;13.98;;;2.63;;
52396;SDS011;38322;53.108;6.308;2022-10-16T11:42:58;9.70;;;2.22;;
52396;SDS011;38322;53.108;6.308;2022-10-16T11:45:49;8.80;;;1.88;;
52396;SDS011;38322;53.108;6.308;2022-10-16T11:51:09;10.83;;;1.43;;
52396;SDS011;38322;53.108;6.308;2022-10-16T11:53:50;7.75;;;1.48;;
52396;SDS011;38322;53.108;6.308;2022-10-16T11:58:58;10.48;;;1.60;;
52396;SDS011;38322;53.108;6.308;2022-10-16T12:01:31;11.60;;;1.17;;
52396;SDS011;38322;53.108;6.308;2022-10-16T12:11:40;7.28;;;1.23;;
52396;SDS011;38322;53.108;6.308;2022-10-16T12:16:38;10.93;;;2.38;;
52396;SDS011;38322;53.108;6.308;2022-10-16T12:19:16;10.82;;;1.02;;
52396;SDS011;38322;53.108;6.308;2022-10-16T12:21:43;10.02;;;2.22;;
52396;SDS011;38322;53.108;6.308;2022-10-16T12:24:19;14.23;;;2.50;;
52396;SDS011;38322;53.108;6.308;2022-10-16T12:26:51;9.82;;;1.15;;
52396;SDS011;38322;53.108;6.308;2022-10-16T12:32:02;10.07;;;1.63;;
52396;SDS011;38322;53.108;6.308;2022-10-16T12:34:32;9.20;;;1.38;;
52396;SDS011;38322;53.108;6.308;2022-10-16T12:37:08;7.93;;;1.63;;
52396;SDS011;38322;53.108;6.308;2022-10-16T12:39:37;10.52;;;1.27;;
52396;SDS011;38322;53.108;6.308;2022-10-16T12:42:04;11.45;;;1.77;;
52396;SDS011;38322;53.108;6.308;2022-10-16T12:44:44;6.90;;;1.08;;
52396;SDS011;38322;53.108;6.308;2022-10-16T12:47:19;11.05;;;1.70;;
52396;SDS011;38322;53.108;6.308;2022-10-16T12:49:55;13.40;;;1.80;;
52396;SDS011;38322;53.108;6.308;2022-10-16T12:52:26;9.55;;;1.92;;
52396;SDS011;38322;53.108;6.308;2022-10-16T12:55:00;13.65;;;1.92;;
52396;SDS011;38322;53.108;6.308;2022-10-16T12:57:45;17.98;;;2.40;;
52396;SDS011;38322;53.108;6.308;2022-10-16T13:00:27;10.52;;;2.00;;
52396;SDS011;38322;53.108;6.308;2022-10-16T13:03:08;14.98;;;1.77;;
52396;SDS011;38322;53.108;6.308;2022-10-16T13:13:34;16.55;;;2.00;;
52396;SDS011;38322;53.108;6.308;2022-10-16T13:16:29;11.98;;;2.67;;
52396;SDS011;38322;53.108;6.308;2022-10-16T13:19:02;12.43;;;2.20;;
52396;SDS011;38322;53.108;6.308;2022-10-16T13:21:47;12.13;;;1.60;;
52396;SDS011;38322;53.108;6.308;2022-10-16T13:29:38;9.38;;;1.13;;
52396;SDS011;38322;53.108;6.308;2022-10-16T13:32:07;14.32;;;1.80;;
52396;SDS011;38322;53.108;6.308;2022-10-16T13:34:44;6.90;;;1.52;;
52396;SDS011;38322;53.108;6.308;2022-10-16T13:37:16;8.82;;;2.35;;
52396;SDS011;38322;53.108;6.308;2022-10-16T13:39:44;10.80;;;2.15;;
52396;SDS011;38322;53.108;6.308;2022-10-16T13:42:14;9.13;;;1.30;;
52396;SDS011;38322;53.108;6.308;2022-10-16T13:44:50;7.80;;;1.38;;
52396;SDS011;38322;53.108;6.308;2022-10-16T13:47:17;8.13;;;2.35;;
52396;SDS011;38322;53.108;6.308;2022-10-16T13:49:45;9.25;;;1.58;;
52396;SDS011;38322;53.108;6.308;2022-10-16T13:52:15;11.40;;;1.55;;
52396;SDS011;38322;53.108;6.308;2022-10-16T13:54:44;8.07;;;1.75;;
52396;SDS011;38322;53.108;6.308;2022-10-16T13:57:14;8.45;;;1.27;;
52396;SDS011;38322;53.108;6.308;2022-10-16T13:59:40;10.90;;;2.55;;
52396;SDS011;38322;53.108;6.308;2022-10-16T14:04:54;7.28;;;1.52;;
52396;SDS011;38322;53.108;6.308;2022-10-16T14:07:28;11.25;;;2.42;;
52396;SDS011;38322;53.108;6.308;2022-10-16T14:10:00;8.85;;;1.90;;
52396;SDS011;38322;53.108;6.308;2022-10-16T14:12:29;10.88;;;2.08;;
52396;SDS011;38322;53.108;6.308;2022-10-16T14:14:55;9.77;;;1.70;;
52396;SDS011;38322;53.108;6.308;2022-10-16T14:17:31;10.73;;;1.20;;
52396;SDS011;38322;53.108;6.308;2022-10-16T14:20:00;14.05;;;1.52;;
52396;SDS011;38322;53.108;6.308;2022-10-16T14:22:30;14.00;;;2.00;;
52396;SDS011;38322;53.108;6.308;2022-10-16T14:25:00;10.27;;;1.48;;
52396;SDS011;38322;53.108;6.308;2022-10-16T14:27:38;11.50;;;2.08;;
52396;SDS011;38322;53.108;6.308;2022-10-16T14:30:08;14.70;;;2.25;;
52396;SDS011;38322;53.108;6.308;2022-10-16T14:32:40;11.15;;;1.95;;
52396;SDS011;38322;53.108;6.308;2022-10-16T14:35:56;13.82;;;2.15;;
52396;SDS011;38322;53.108;6.308;2022-10-16T14:38:01;15.95;;;2.60;;
52396;SDS011;38322;53.108;6.308;2022-10-16T14:40:29;11.60;;;2.08;;
52396;SDS011;38322;53.108;6.308;2022-10-16T14:42:59;8.98;;;1.48;;
52396;SDS011;38322;53.108;6.308;2022-10-16T14:45:27;7.68;;;1.23;;
52396;SDS011;38322;53.108;6.308;2022-10-16T14:47:56;7.93;;;1.42;;
52396;SDS011;38322;53.108;6.308;2022-10-16T14:50:24;14.18;;;2.10;;
52396;SDS011;38322;53.108;6.308;2022-10-16T14:52:50;6.95;;;1.20;;
52396;SDS011;38322;53.108;6.308;2022-10-16T14:55:16;11.60;;;1.10;;
52396;SDS011;38322;53.108;6.308;2022-10-16T14:57:43;11.18;;;1.75;;
52396;SDS011;38322;53.108;6.308;2022-10-16T15:00:15;7.78;;;1.52;;
52396;SDS011;38322;53.108;6.308;2022-10-16T15:02:45;11.05;;;2.97;;
52396;SDS011;38322;53.108;6.308;2022-10-16T15:05:14;9.68;;;1.80;;
52396;SDS011;38322;53.108;6.308;2022-10-16T15:07:43;11.73;;;1.48;;
52396;SDS011;38322;53.108;6.308;2022-10-16T15:10:09;9.88;;;2.15;;
52396;SDS011;38322;53.108;6.308;2022-10-16T15:12:35;11.95;;;2.13;;
52396;SDS011;38322;53.108;6.308;2022-10-16T15:15:02;9.18;;;0.90;;
52396;SDS011;38322;53.108;6.308;2022-10-16T15:17:44;7.55;;;2.20;;
52396;SDS011;38322;53.108;6.308;2022-10-16T15:20:10;9.93;;;2.67;;
52396;SDS011;38322;53.108;6.308;2022-10-16T15:22:36;13.07;;;1.63;;
52396;SDS011;38322;53.108;6.308;2022-10-16T15:25:01;7.10;;;2.30;;
52396;SDS011;38322;53.108;6.308;2022-10-16T15:27:34;9.48;;;1.65;;
52396;SDS011;38322;53.108;6.308;2022-10-16T15:30:05;8.00;;;0.98;;
52396;SDS011;38322;53.108;6.308;2022-10-16T15:32:31;9.00;;;1.75;;
52396;SDS011;38322;53.108;6.308;2022-10-16T15:34:57;9.50;;;2.45;;
52396;SDS011;38322;53.108;6.308;2022-10-16T15:37:23;8.90;;;1.80;;
52396;SDS011;38322;53.108;6.308;2022-10-16T15:39:49;6.55;;;1.40;;
52396;SDS011;38322;53.108;6.308;2022-10-16T15:42:15;9.80;;;1.17;;
52396;SDS011;38322;53.108;6.308;2022-10-16T15:44:41;9.70;;;1.55;;
52396;SDS011;38322;53.108;6.308;2022-10-16T15:47:07;14.18;;;1.52;;
52396;SDS011;38322;53.108;6.308;2022-10-16T15:49:33;9.40;;;0.88;;
52396;SDS011;38322;53.108;6.308;2022-10-16T15:51:59;7.20;;;1.10;;
52396;SDS011;38322;53.108;6.308;2022-10-16T15:54:24;9.57;;;1.35;;
52396;SDS011;38322;53.108;6.308;2022-10-16T15:56:50;8.95;;;1.30;;
52396;SDS011;38322;53.108;6.308;2022-10-16T15:59:16;17.48;;;2.88;;
52396;SDS011;38322;53.108;6.308;2022-10-16T16:01:42;9.02;;;1.10;;
52396;SDS011;38322;53.108;6.308;2022-10-16T16:04:08;5.18;;;1.45;;
52396;SDS011;38322;53.108;6.308;2022-10-16T16:06:33;8.50;;;2.17;;
52396;SDS011;38322;53.108;6.308;2022-10-16T16:09:02;8.10;;;1.35;;
52396;SDS011;38322;53.108;6.308;2022-10-16T16:11:28;7.68;;;1.30;;
52396;SDS011;38322;53.108;6.308;2022-10-16T16:13:57;9.77;;;1.10;;
52396;SDS011;38322;53.108;6.308;2022-10-16T16:16:23;10.52;;;0.93;;
52396;SDS011;38322;53.108;6.308;2022-10-16T16:18:50;9.38;;;1.20;;
52396;SDS011;38322;53.108;6.308;2022-10-16T16:21:18;8.38;;;1.35;;
52396;SDS011;38322;53.108;6.308;2022-10-16T16:23:44;13.20;;;1.67;;
52396;SDS011;38322;53.108;6.308;2022-10-16T16:26:22;8.43;;;1.77;;
52396;SDS011;38322;53.108;6.308;2022-10-16T16:28:51;10.67;;;1.27;;
52396;SDS011;38322;53.108;6.308;2022-10-16T16:31:17;8.63;;;1.85;;
52396;SDS011;38322;53.108;6.308;2022-10-16T16:33:43;7.53;;;1.40;;
52396;SDS011;38322;53.108;6.308;2022-10-16T16:36:09;16.75;;;1.90;;
52396;SDS011;38322;53.108;6.308;2022-10-16T16:38:35;12.82;;;1.83;;
52396;SDS011;38322;53.108;6.308;2022-10-16T16:41:14;4.60;;;1.05;;
52396;SDS011;38322;53.108;6.308;2022-10-16T16:43:42;11.48;;;1.52;;
52396;SDS011;38322;53.108;6.308;2022-10-16T16:46:08;8.55;;;1.48;;
52396;SDS011;38322;53.108;6.308;2022-10-16T16:48:35;10.38;;;1.35;;
52396;SDS011;38322;53.108;6.308;2022-10-16T16:51:09;9.93;;;1.35;;
52396;SDS011;38322;53.108;6.308;2022-10-16T16:53:40;18.05;;;2.15;;
52396;SDS011;38322;53.108;6.308;2022-10-16T16:56:07;8.35;;;2.80;;
52396;SDS011;38322;53.108;6.308;2022-10-16T16:58:33;11.38;;;1.10;;
52396;SDS011;38322;53.108;6.308;2022-10-16T17:00:59;11.82;;;1.75;;
52396;SDS011;38322;53.108;6.308;2022-10-16T17:03:27;9.52;;;1.30;;
52396;SDS011;38322;53.108;6.308;2022-10-16T17:05:56;12.02;;;1.73;;
52396;SDS011;38322;53.108;6.308;2022-10-16T17:08:22;13.85;;;2.20;;
52396;SDS011;38322;53.108;6.308;2022-10-16T17:10:48;12.02;;;1.33;;
52396;SDS011;38322;53.108;6.308;2022-10-16T17:13:18;16.08;;;2.65;;
52396;SDS011;38322;53.108;6.308;2022-10-16T17:15:45;17.35;;;1.80;;
52396;SDS011;38322;53.108;6.308;2022-10-16T17:18:12;8.38;;;2.17;;
52396;SDS011;38322;53.108;6.308;2022-10-16T17:20:38;14.13;;;2.97;;
52396;SDS011;38322;53.108;6.308;2022-10-16T17:23:03;19.65;;;2.78;;
52396;SDS011;38322;53.108;6.308;2022-10-16T17:25:29;12.75;;;3.00;;
52396;SDS011;38322;53.108;6.308;2022-10-16T17:27:55;11.18;;;1.65;;
52396;SDS011;38322;53.108;6.308;2022-10-16T17:30:22;13.20;;;2.33;;
52396;SDS011;38322;53.108;6.308;2022-10-16T17:32:49;12.48;;;2.90;;
52396;SDS011;38322;53.108;6.308;2022-10-16T17:35:15;19.95;;;3.08;;
52396;SDS011;38322;53.108;6.308;2022-10-16T17:37:41;8.63;;;1.67;;
52396;SDS011;38322;53.108;6.308;2022-10-16T17:40:07;12.15;;;1.45;;
52396;SDS011;38322;53.108;6.308;2022-10-16T17:42:34;9.73;;;1.90;;
52396;SDS011;38322;53.108;6.308;2022-10-16T17:45:00;7.88;;;0.95;;
52396;SDS011;38322;53.108;6.308;2022-10-16T17:47:26;12.38;;;1.33;;
52396;SDS011;38322;53.108;6.308;2022-10-16T17:49:53;11.77;;;2.20;;
52396;SDS011;38322;53.108;6.308;2022-10-16T17:52:19;18.23;;;3.67;;
52396;SDS011;38322;53.108;6.308;2022-10-16T17:54:45;7.85;;;2.17;;
52396;SDS011;38322;53.108;6.308;2022-10-16T17:57:11;11.15;;;2.03;;
52396;SDS011;38322;53.108;6.308;2022-10-16T17:59:36;11.80;;;1.17;;
52396;SDS011;38322;53.108;6.308;2022-10-16T18:02:02;11.05;;;1.33;;
52396;SDS011;38322;53.108;6.308;2022-10-16T18:04:28;10.52;;;2.13;;
52396;SDS011;38322;53.108;6.308;2022-10-16T18:06:54;13.82;;;1.60;;
52396;SDS011;38322;53.108;6.308;2022-10-16T18:09:20;12.38;;;3.28;;
52396;SDS011;38322;53.108;6.308;2022-10-16T18:11:46;4.43;;;1.55;;
52396;SDS011;38322;53.108;6.308;2022-10-16T18:14:14;9.40;;;2.05;;
52396;SDS011;38322;53.108;6.308;2022-10-16T18:16:41;8.50;;;1.58;;
52396;SDS011;38322;53.108;6.308;2022-10-16T18:19:08;6.13;;;1.42;;
52396;SDS011;38322;53.108;6.308;2022-10-16T18:21:35;6.50;;;1.70;;
52396;SDS011;38322;53.108;6.308;2022-10-16T18:24:00;9.93;;;1.70;;
52396;SDS011;38322;53.108;6.308;2022-10-16T18:26:27;5.50;;;1.35;;
52396;SDS011;38322;53.108;6.308;2022-10-16T18:28:53;10.35;;;3.80;;
52396;SDS011;38322;53.108;6.308;2022-10-16T18:31:20;13.27;;;4.47;;
52396;SDS011;38322;53.108;6.308;2022-10-16T18:33:47;14.73;;;3.33;;
52396;SDS011;38322;53.108;6.308;2022-10-16T18:36:15;13.32;;;3.00;;
52396;SDS011;38322;53.108;6.308;2022-10-16T18:38:43;10.35;;;3.72;;
52396;SDS011;38322;53.108;6.308;2022-10-16T18:41:09;17.75;;;4.40;;
52396;SDS011;38322;53.108;6.308;2022-10-16T18:43:36;19.50;;;3.92;;
52396;SDS011;38322;53.108;6.308;2022-10-16T18:46:03;14.10;;;3.42;;
52396;SDS011;38322;53.108;6.308;2022-10-16T18:48:31;9.20;;;3.65;;
52396;SDS011;38322;53.108;6.308;2022-10-16T18:51:05;13.85;;;4.32;;
52396;SDS011;38322;53.108;6.308;2022-10-16T18:53:32;15.52;;;3.47;;
52396;SDS011;38322;53.108;6.308;2022-10-16T18:55:58;13.70;;;3.65;;
52396;SDS011;38322;53.108;6.308;2022-10-16T18:58:24;14.07;;;3.15;;
52396;SDS011;38322;53.108;6.308;2022-10-16T19:00:50;11.68;;;3.75;;
52396;SDS011;38322;53.108;6.308;2022-10-16T19:03:16;13.73;;;4.85;;
52396;SDS011;38322;53.108;6.308;2022-10-16T19:05:42;11.10;;;5.35;;
52396;SDS011;38322;53.108;6.308;2022-10-16T19:08:11;13.02;;;5.15;;
52396;SDS011;38322;53.108;6.308;2022-10-16T19:10:37;13.93;;;4.53;;
52396;SDS011;38322;53.108;6.308;2022-10-16T19:13:06;14.35;;;4.03;;
52396;SDS011;38322;53.108;6.308;2022-10-16T19:15:32;13.52;;;3.30;;
52396;SDS011;38322;53.108;6.308;2022-10-16T19:17:58;15.30;;;3.28;;
52396;SDS011;38322;53.108;6.308;2022-10-16T19:20:24;9.95;;;2.65;;
52396;SDS011;38322;53.108;6.308;2022-10-16T19:22:50;14.05;;;3.05;;
52396;SDS011;38322;53.108;6.308;2022-10-16T19:25:18;11.77;;;3.58;;
52396;SDS011;38322;53.108;6.308;2022-10-16T19:27:47;17.80;;;4.60;;
52396;SDS011;38322;53.108;6.308;2022-10-16T19:30:13;18.27;;;3.60;;
52396;SDS011;38322;53.108;6.308;2022-10-16T19:32:40;10.82;;;3.72;;
52396;SDS011;38322;53.108;6.308;2022-10-16T19:35:06;10.70;;;3.13;;
52396;SDS011;38322;53.108;6.308;2022-10-16T19:37:33;13.27;;;3.95;;
52396;SDS011;38322;53.108;6.308;2022-10-16T19:40:00;8.73;;;2.70;;
52396;SDS011;38322;53.108;6.308;2022-10-16T19:42:26;14.95;;;2.72;;
52396;SDS011;38322;53.108;6.308;2022-10-16T19:44:51;8.52;;;3.20;;
52396;SDS011;38322;53.108;6.308;2022-10-16T19:47:17;11.70;;;3.08;;
52396;SDS011;38322;53.108;6.308;2022-10-16T19:49:43;10.90;;;2.97;;
52396;SDS011;38322;53.108;6.308;2022-10-16T19:52:09;12.00;;;3.63;;
52396;SDS011;38322;53.108;6.308;2022-10-16T19:54:35;17.80;;;3.08;;
52396;SDS011;38322;53.108;6.308;2022-10-16T19:57:03;9.65;;;3.63;;
52396;SDS011;38322;53.108;6.308;2022-10-16T19:59:29;15.15;;;7.30;;
